Terminal Aerodrome Forecast
Issued by NWS

Home | Current Version | Previous Version | Text Only | Print | Product List | Glossary On
Versions: 1 2 3 4 5 6 7 8 9 10 11 12 13 14 15 16 17
000
FTUS42 KMLB 301725
TAFTIX
TAF
KTIX 301725Z 3018/3118 14011KT 6SM -RA VCTS BKN030CB BKN120
      TEMPO 3018/3022 2SM TSRA BKN020CB OVC050
     FM310100 18005KT P6SM VCSH SCT020 BKN040 OVC080
     FM310600 18003KT P6SM VCSH SCT020 BKN060 OVC100
     FM311300 20006KT P6SM VCSH SCT020 BKN080 OVC250
      TEMPO 3114/3118 3SM TSRA BKN020CB=

USA.gov is the U.S. government's official web portal to all federal, state and local government web resources and services.